sensor_id;sensor_type;location;lat;lon;timestamp;temperature;humidity
14614;DHT22;7393;51.446;6.800;2023-02-04T00:01:24;8.30;99.90
14614;DHT22;7393;51.446;6.800;2023-02-04T00:03:51;8.20;1.00
14614;DHT22;7393;51.446;6.800;2023-02-04T00:06:18;8.30;99.90
14614;DHT22;7393;51.446;6.800;2023-02-04T00:08:44;8.30;1.00
14614;DHT22;7393;51.446;6.800;2023-02-04T00:11:11;8.40;99.90
14614;DHT22;7393;51.446;6.800;2023-02-04T00:13:38;8.30;1.00
14614;DHT22;7393;51.446;6.800;2023-02-04T00:16:06;8.30;1.00
14614;DHT22;7393;51.446;6.800;2023-02-04T00:18:33;8.30;99.90
14614;DHT22;7393;51.446;6.800;2023-02-04T00:21:00;8.30;1.00
14614;DHT22;7393;51.446;6.800;2023-02-04T00:23:26;8.20;99.90
14614;DHT22;7393;51.446;6.800;2023-02-04T00:25:53;8.20;1.00
14614;DHT22;7393;51.446;6.800;2023-02-04T00:28:20;8.30;1.00
14614;DHT22;7393;51.446;6.800;2023-02-04T00:30:47;8.30;1.00
14614;DHT22;7393;51.446;6.800;2023-02-04T00:33:15;8.30;99.90
14614;DHT22;7393;51.446;6.800;2023-02-04T00:35:41;8.30;99.90
14614;DHT22;7393;51.446;6.800;2023-02-04T00:38:08;8.20;1.00
14614;DHT22;7393;51.446;6.800;2023-02-04T00:40:36;8.20;99.90
14614;DHT22;7393;51.446;6.800;2023-02-04T00:43:02;8.10;99.90
14614;DHT22;7393;51.446;6.800;2023-02-04T00:45:29;8.20;1.00
14614;DHT22;7393;51.446;6.800;2023-02-04T00:47:56;8.20;1.00
14614;DHT22;7393;51.446;6.800;2023-02-04T00:50:24;8.10;99.90
14614;DHT22;7393;51.446;6.800;2023-02-04T00:52:51;8.20;99.90
14614;DHT22;7393;51.446;6.800;2023-02-04T00:55:18;8.20;99.50
14614;DHT22;7393;51.446;6.800;2023-02-04T00:57:44;8.20;1.00
14614;DHT22;7393;51.446;6.800;2023-02-04T01:00:13;8.10;1.00
14614;DHT22;7393;51.446;6.800;2023-02-04T01:02:40;8.10;1.00
14614;DHT22;7393;51.446;6.800;2023-02-04T01:05:07;8.10;1.00
14614;DHT22;7393;51.446;6.800;2023-02-04T01:07:36;8.10;1.00
14614;DHT22;7393;51.446;6.800;2023-02-04T01:10:03;8.10;1.00
14614;DHT22;7393;51.446;6.800;2023-02-04T01:12:30;8.10;1.00
14614;DHT22;7393;51.446;6.800;2023-02-04T01:14:57;8.10;99.90
14614;DHT22;7393;51.446;6.800;2023-02-04T01:17:24;8.10;99.90
14614;DHT22;7393;51.446;6.800;2023-02-04T01:19:50;8.10;1.00
14614;DHT22;7393;51.446;6.800;2023-02-04T01:22:17;8.10;1.00
14614;DHT22;7393;51.446;6.800;2023-02-04T01:24:45;8.10;99.90
14614;DHT22;7393;51.446;6.800;2023-02-04T01:27:13;8.20;1.00
14614;DHT22;7393;51.446;6.800;2023-02-04T01:29:40;8.10;99.90
14614;DHT22;7393;51.446;6.800;2023-02-04T01:32:07;8.10;1.00
14614;DHT22;7393;51.446;6.800;2023-02-04T01:34:33;8.10;1.00
14614;DHT22;7393;51.446;6.800;2023-02-04T01:37:00;8.10;1.00
14614;DHT22;7393;51.446;6.800;2023-02-04T01:39:27;8.10;99.90
14614;DHT22;7393;51.446;6.800;2023-02-04T01:41:55;8.10;1.00
14614;DHT22;7393;51.446;6.800;2023-02-04T01:44:25;8.10;99.90
14614;DHT22;7393;51.446;6.800;2023-02-04T01:46:52;8.10;67.70
14614;DHT22;7393;51.446;6.800;2023-02-04T01:49:19;8.10;99.90
14614;DHT22;7393;51.446;6.800;2023-02-04T01:51:46;8.10;1.00
14614;DHT22;7393;51.446;6.800;2023-02-04T01:54:13;8.10;99.90
14614;DHT22;7393;51.446;6.800;2023-02-04T01:56:44;8.10;1.00
14614;DHT22;7393;51.446;6.800;2023-02-04T01:59:14;8.10;1.00
14614;DHT22;7393;51.446;6.800;2023-02-04T02:01:43;8.10;1.00
14614;DHT22;7393;51.446;6.800;2023-02-04T02:04:11;8.10;1.00
14614;DHT22;7393;51.446;6.800;2023-02-04T02:06:42;8.10;99.90
14614;DHT22;7393;51.446;6.800;2023-02-04T02:09:09;8.10;1.00
14614;DHT22;7393;51.446;6.800;2023-02-04T02:11:36;8.10;99.90
14614;DHT22;7393;51.446;6.800;2023-02-04T02:14:03;8.10;99.90
14614;DHT22;7393;51.446;6.800;2023-02-04T02:16:31;8.10;99.90
14614;DHT22;7393;51.446;6.800;2023-02-04T02:18:58;8.10;90.70
14614;DHT22;7393;51.446;6.800;2023-02-04T02:21:32;8.10;1.00
14614;DHT22;7393;51.446;6.800;2023-02-04T02:24:25;8.00;99.90
14614;DHT22;7393;51.446;6.800;2023-02-04T02:26:53;8.10;1.00
14614;DHT22;7393;51.446;6.800;2023-02-04T02:29:20;8.00;1.00
14614;DHT22;7393;51.446;6.800;2023-02-04T02:31:46;8.00;36.40
14614;DHT22;7393;51.446;6.800;2023-02-04T02:34:13;8.00;99.90
14614;DHT22;7393;51.446;6.800;2023-02-04T02:36:40;8.00;99.90
14614;DHT22;7393;51.446;6.800;2023-02-04T02:39:08;8.00;99.90
14614;DHT22;7393;51.446;6.800;2023-02-04T02:41:35;8.00;1.00
14614;DHT22;7393;51.446;6.800;2023-02-04T02:44:03;8.00;1.00
14614;DHT22;7393;51.446;6.800;2023-02-04T02:46:30;8.00;99.90
14614;DHT22;7393;51.446;6.800;2023-02-04T02:48:57;8.00;1.00
14614;DHT22;7393;51.446;6.800;2023-02-04T02:51:23;7.90;99.90
14614;DHT22;7393;51.446;6.800;2023-02-04T02:53:50;8.00;1.00
14614;DHT22;7393;51.446;6.800;2023-02-04T02:56:19;7.90;99.90
14614;DHT22;7393;51.446;6.800;2023-02-04T02:58:46;7.90;1.00
14614;DHT22;7393;51.446;6.800;2023-02-04T03:01:12;7.90;1.00
14614;DHT22;7393;51.446;6.800;2023-02-04T03:03:42;7.90;1.00
14614;DHT22;7393;51.446;6.800;2023-02-04T03:06:13;7.90;1.00
14614;DHT22;7393;51.446;6.800;2023-02-04T03:08:42;7.90;1.00
14614;DHT22;7393;51.446;6.800;2023-02-04T03:11:09;7.90;99.90
14614;DHT22;7393;51.446;6.800;2023-02-04T03:13:38;8.00;1.00
14614;DHT22;7393;51.446;6.800;2023-02-04T03:16:06;7.90;1.00
14614;DHT22;7393;51.446;6.800;2023-02-04T03:18:35;7.90;1.00
14614;DHT22;7393;51.446;6.800;2023-02-04T03:21:03;7.90;99.90
14614;DHT22;7393;51.446;6.800;2023-02-04T03:23:32;7.90;10.40
14614;DHT22;7393;51.446;6.800;2023-02-04T03:26:00;7.90;1.00
14614;DHT22;7393;51.446;6.800;2023-02-04T03:28:27;7.90;1.00
14614;DHT22;7393;51.446;6.800;2023-02-04T03:30:56;7.90;1.00
14614;DHT22;7393;51.446;6.800;2023-02-04T03:33:25;7.90;1.00
14614;DHT22;7393;51.446;6.800;2023-02-04T03:35:53;7.90;1.00
14614;DHT22;7393;51.446;6.800;2023-02-04T03:38:20;7.90;99.90
14614;DHT22;7393;51.446;6.800;2023-02-04T03:40:46;7.90;1.00
14614;DHT22;7393;51.446;6.800;2023-02-04T03:43:13;7.90;5.50
14614;DHT22;7393;51.446;6.800;2023-02-04T03:45:40;7.90;99.90
14614;DHT22;7393;51.446;6.800;2023-02-04T03:48:08;7.90;1.00
14614;DHT22;7393;51.446;6.800;2023-02-04T03:50:35;7.80;1.00
14614;DHT22;7393;51.446;6.800;2023-02-04T03:53:02;7.80;1.00
14614;DHT22;7393;51.446;6.800;2023-02-04T03:55:29;7.80;1.00
14614;DHT22;7393;51.446;6.800;2023-02-04T03:57:56;7.80;1.00
14614;DHT22;7393;51.446;6.800;2023-02-04T04:00:23;7.80;1.00
14614;DHT22;7393;51.446;6.800;2023-02-04T04:02:50;7.80;99.90
14614;DHT22;7393;51.446;6.800;2023-02-04T04:05:18;7.80;99.90
14614;DHT22;7393;51.446;6.800;2023-02-04T04:07:45;7.70;99.90
14614;DHT22;7393;51.446;6.800;2023-02-04T04:10:11;7.70;1.00
14614;DHT22;7393;51.446;6.800;2023-02-04T04:12:38;7.70;1.00
14614;DHT22;7393;51.446;6.800;2023-02-04T04:15:05;7.70;1.00
14614;DHT22;7393;51.446;6.800;2023-02-04T04:17:32;7.70;99.90
14614;DHT22;7393;51.446;6.800;2023-02-04T04:19:59;7.70;99.90
14614;DHT22;7393;51.446;6.800;2023-02-04T04:22:27;7.70;99.90
14614;DHT22;7393;51.446;6.800;2023-02-04T04:24:54;7.70;1.00
14614;DHT22;7393;51.446;6.800;2023-02-04T04:27:21;7.70;1.00
14614;DHT22;7393;51.446;6.800;2023-02-04T04:29:47;7.70;1.00
14614;DHT22;7393;51.446;6.800;2023-02-04T04:32:14;7.70;33.50
14614;DHT22;7393;51.446;6.800;2023-02-04T04:34:41;7.70;99.90
14614;DHT22;7393;51.446;6.800;2023-02-04T04:37:07;7.70;99.90
14614;DHT22;7393;51.446;6.800;2023-02-04T04:39:36;7.70;99.90
14614;DHT22;7393;51.446;6.800;2023-02-04T04:42:02;7.70;1.00
14614;DHT22;7393;51.446;6.800;2023-02-04T04:44:29;7.70;1.00
14614;DHT22;7393;51.446;6.800;2023-02-04T04:46:56;7.70;1.00
14614;DHT22;7393;51.446;6.800;2023-02-04T04:49:23;7.70;1.00
14614;DHT22;7393;51.446;6.800;2023-02-04T04:51:50;7.70;1.00
14614;DHT22;7393;51.446;6.800;2023-02-04T04:54:16;7.70;1.00
14614;DHT22;7393;51.446;6.800;2023-02-04T04:56:45;7.70;1.00
14614;DHT22;7393;51.446;6.800;2023-02-04T04:59:11;7.70;1.00
14614;DHT22;7393;51.446;6.800;2023-02-04T05:01:38;7.70;1.00
14614;DHT22;7393;51.446;6.800;2023-02-04T05:04:05;7.70;1.00
14614;DHT22;7393;51.446;6.800;2023-02-04T05:06:32;7.70;1.00
14614;DHT22;7393;51.446;6.800;2023-02-04T05:08:59;7.70;30.00
14614;DHT22;7393;51.446;6.800;2023-02-04T05:11:26;7.70;99.90
14614;DHT22;7393;51.446;6.800;2023-02-04T05:13:54;7.70;99.90
14614;DHT22;7393;51.446;6.800;2023-02-04T05:16:21;7.70;99.90
14614;DHT22;7393;51.446;6.800;2023-02-04T05:18:48;7.70;99.90
14614;DHT22;7393;51.446;6.800;2023-02-04T05:21:14;7.60;99.90
14614;DHT22;7393;51.446;6.800;2023-02-04T05:23:41;7.60;99.90
14614;DHT22;7393;51.446;6.800;2023-02-04T05:26:08;7.60;99.90
14614;DHT22;7393;51.446;6.800;2023-02-04T05:28:34;7.60;99.90
14614;DHT22;7393;51.446;6.800;2023-02-04T05:31:02;7.60;99.90
14614;DHT22;7393;51.446;6.800;2023-02-04T05:33:29;7.60;99.90
14614;DHT22;7393;51.446;6.800;2023-02-04T05:35:56;7.60;99.90
14614;DHT22;7393;51.446;6.800;2023-02-04T05:38:23;7.60;99.90
14614;DHT22;7393;51.446;6.800;2023-02-04T05:40:49;7.60;99.90
14614;DHT22;7393;51.446;6.800;2023-02-04T05:43:16;7.50;99.90
14614;DHT22;7393;51.446;6.800;2023-02-04T05:45:43;7.60;99.90
14614;DHT22;7393;51.446;6.800;2023-02-04T05:48:11;7.60;99.90
14614;DHT22;7393;51.446;6.800;2023-02-04T05:50:38;7.60;99.90
14614;DHT22;7393;51.446;6.800;2023-02-04T05:53:04;7.60;99.90
14614;DHT22;7393;51.446;6.800;2023-02-04T05:55:31;7.60;99.90
14614;DHT22;7393;51.446;6.800;2023-02-04T05:57:58;7.50;99.90
14614;DHT22;7393;51.446;6.800;2023-02-04T06:00:26;7.50;99.90
14614;DHT22;7393;51.446;6.800;2023-02-04T06:02:52;7.50;99.90
14614;DHT22;7393;51.446;6.800;2023-02-04T06:05:20;7.50;99.90
14614;DHT22;7393;51.446;6.800;2023-02-04T06:07:47;7.50;99.90
14614;DHT22;7393;51.446;6.800;2023-02-04T06:10:15;7.50;99.90
14614;DHT22;7393;51.446;6.800;2023-02-04T06:12:42;7.50;1.00
14614;DHT22;7393;51.446;6.800;2023-02-04T06:15:09;7.50;1.00
14614;DHT22;7393;51.446;6.800;2023-02-04T06:17:36;7.50;1.00
14614;DHT22;7393;51.446;6.800;2023-02-04T06:20:03;7.50;1.00
14614;DHT22;7393;51.446;6.800;2023-02-04T06:22:31;7.50;1.00
14614;DHT22;7393;51.446;6.800;2023-02-04T06:24:58;7.50;1.00
14614;DHT22;7393;51.446;6.800;2023-02-04T06:27:25;7.50;99.90
14614;DHT22;7393;51.446;6.800;2023-02-04T06:29:52;7.50;99.90
14614;DHT22;7393;51.446;6.800;2023-02-04T06:32:20;7.50;1.00
14614;DHT22;7393;51.446;6.800;2023-02-04T06:34:47;7.50;99.90
14614;DHT22;7393;51.446;6.800;2023-02-04T06:37:14;7.40;99.90
14614;DHT22;7393;51.446;6.800;2023-02-04T06:39:42;7.40;99.90
14614;DHT22;7393;51.446;6.800;2023-02-04T06:42:09;7.40;99.90
14614;DHT22;7393;51.446;6.800;2023-02-04T06:44:36;7.40;99.90
14614;DHT22;7393;51.446;6.800;2023-02-04T06:47:03;7.40;99.90
14614;DHT22;7393;51.446;6.800;2023-02-04T06:49:29;7.40;99.90
14614;DHT22;7393;51.446;6.800;2023-02-04T06:51:56;7.40;99.90
14614;DHT22;7393;51.446;6.800;2023-02-04T06:54:23;7.40;99.90
14614;DHT22;7393;51.446;6.800;2023-02-04T06:56:51;7.40;99.90
14614;DHT22;7393;51.446;6.800;2023-02-04T06:59:18;7.40;99.90
14614;DHT22;7393;51.446;6.800;2023-02-04T07:01:45;7.50;99.90
14614;DHT22;7393;51.446;6.800;2023-02-04T07:04:11;7.40;99.90
14614;DHT22;7393;51.446;6.800;2023-02-04T07:06:38;7.40;99.90
14614;DHT22;7393;51.446;6.800;2023-02-04T07:09:05;7.40;99.90
14614;DHT22;7393;51.446;6.800;2023-02-04T07:11:32;7.40;99.90
14614;DHT22;7393;51.446;6.800;2023-02-04T07:14:00;7.40;99.90
14614;DHT22;7393;51.446;6.800;2023-02-04T07:16:26;7.30;99.90
14614;DHT22;7393;51.446;6.800;2023-02-04T07:18:53;7.30;99.90
14614;DHT22;7393;51.446;6.800;2023-02-04T07:21:20;7.30;99.90
14614;DHT22;7393;51.446;6.800;2023-02-04T07:23:47;7.30;1.00
14614;DHT22;7393;51.446;6.800;2023-02-04T07:26:13;7.30;1.00
14614;DHT22;7393;51.446;6.800;2023-02-04T07:28:40;7.30;1.00
14614;DHT22;7393;51.446;6.800;2023-02-04T07:31:09;7.30;1.00
14614;DHT22;7393;51.446;6.800;2023-02-04T07:33:36;7.30;1.00
14614;DHT22;7393;51.446;6.800;2023-02-04T07:36:03;7.30;1.00
14614;DHT22;7393;51.446;6.800;2023-02-04T07:38:30;7.30;1.00
14614;DHT22;7393;51.446;6.800;2023-02-04T07:40:56;7.40;99.90
14614;DHT22;7393;51.446;6.800;2023-02-04T07:43:23;7.40;99.90
14614;DHT22;7393;51.446;6.800;2023-02-04T07:45:50;7.30;99.90
14614;DHT22;7393;51.446;6.800;2023-02-04T07:48:18;7.30;99.90
14614;DHT22;7393;51.446;6.800;2023-02-04T07:50:45;7.40;99.90
14614;DHT22;7393;51.446;6.800;2023-02-04T07:53:12;7.40;99.90
14614;DHT22;7393;51.446;6.800;2023-02-04T07:55:39;7.40;1.00
14614;DHT22;7393;51.446;6.800;2023-02-04T07:58:05;7.40;99.90
14614;DHT22;7393;51.446;6.800;2023-02-04T08:00:32;7.40;99.90
14614;DHT22;7393;51.446;6.800;2023-02-04T08:02:59;7.40;99.90
14614;DHT22;7393;51.446;6.800;2023-02-04T08:05:27;7.40;1.00
14614;DHT22;7393;51.446;6.800;2023-02-04T08:07:54;7.40;1.00
14614;DHT22;7393;51.446;6.800;2023-02-04T08:10:23;7.40;1.00
14614;DHT22;7393;51.446;6.800;2023-02-04T08:12:49;7.40;1.00
14614;DHT22;7393;51.446;6.800;2023-02-04T08:15:16;7.50;1.00
14614;DHT22;7393;51.446;6.800;2023-02-04T08:17:43;7.40;1.00
14614;DHT22;7393;51.446;6.800;2023-02-04T08:20:11;7.50;1.00
14614;DHT22;7393;51.446;6.800;2023-02-04T08:22:39;7.50;99.90
14614;DHT22;7393;51.446;6.800;2023-02-04T08:25:06;7.50;99.90
14614;DHT22;7393;51.446;6.800;2023-02-04T08:27:34;7.50;99.90
14614;DHT22;7393;51.446;6.800;2023-02-04T08:30:01;7.50;1.00
14614;DHT22;7393;51.446;6.800;2023-02-04T08:32:27;7.50;1.00
14614;DHT22;7393;51.446;6.800;2023-02-04T08:34:55;7.50;1.00
14614;DHT22;7393;51.446;6.800;2023-02-04T08:37:22;7.50;1.00
14614;DHT22;7393;51.446;6.800;2023-02-04T08:39:50;7.50;1.00
14614;DHT22;7393;51.446;6.800;2023-02-04T08:42:17;7.50;1.00
14614;DHT22;7393;51.446;6.800;2023-02-04T08:44:44;7.50;1.00
14614;DHT22;7393;51.446;6.800;2023-02-04T08:47:11;7.60;1.00
14614;DHT22;7393;51.446;6.800;2023-02-04T08:49:38;7.60;1.00
14614;DHT22;7393;51.446;6.800;2023-02-04T08:52:05;7.60;1.00
14614;DHT22;7393;51.446;6.800;2023-02-04T08:54:32;7.70;1.00
14614;DHT22;7393;51.446;6.800;2023-02-04T08:57:01;7.70;1.00
14614;DHT22;7393;51.446;6.800;2023-02-04T08:59:28;7.80;1.00
14614;DHT22;7393;51.446;6.800;2023-02-04T09:01:55;7.80;1.00
14614;DHT22;7393;51.446;6.800;2023-02-04T09:04:22;7.80;1.00
14614;DHT22;7393;51.446;6.800;2023-02-04T09:06:50;7.80;1.00
14614;DHT22;7393;51.446;6.800;2023-02-04T09:09:17;7.80;1.00
14614;DHT22;7393;51.446;6.800;2023-02-04T09:11:44;7.80;1.00
14614;DHT22;7393;51.446;6.800;2023-02-04T09:14:12;7.90;1.00
14614;DHT22;7393;51.446;6.800;2023-02-04T09:16:39;7.90;1.00
14614;DHT22;7393;51.446;6.800;2023-02-04T09:19:06;8.00;1.00
14614;DHT22;7393;51.446;6.800;2023-02-04T09:21:35;8.00;99.90
14614;DHT22;7393;51.446;6.800;2023-02-04T09:24:02;8.10;99.90
14614;DHT22;7393;51.446;6.800;2023-02-04T09:26:29;8.10;1.00
14614;DHT22;7393;51.446;6.800;2023-02-04T09:28:56;8.20;99.90
14614;DHT22;7393;51.446;6.800;2023-02-04T09:31:24;8.20;99.90
14614;DHT22;7393;51.446;6.800;2023-02-04T09:33:51;8.20;99.90
14614;DHT22;7393;51.446;6.800;2023-02-04T09:36:18;8.20;99.90
14614;DHT22;7393;51.446;6.800;2023-02-04T09:38:45;8.30;99.90
14614;DHT22;7393;51.446;6.800;2023-02-04T09:41:12;8.30;99.90
14614;DHT22;7393;51.446;6.800;2023-02-04T09:43:43;8.30;99.90
14614;DHT22;7393;51.446;6.800;2023-02-04T09:46:17;8.30;99.90
14614;DHT22;7393;51.446;6.800;2023-02-04T09:48:46;8.30;99.90
14614;DHT22;7393;51.446;6.800;2023-02-04T09:51:17;8.30;99.90
14614;DHT22;7393;51.446;6.800;2023-02-04T09:53:46;8.30;99.90
14614;DHT22;7393;51.446;6.800;2023-02-04T09:56:13;8.30;99.90
14614;DHT22;7393;51.446;6.800;2023-02-04T09:58:42;8.40;99.90
14614;DHT22;7393;51.446;6.800;2023-02-04T10:01:13;8.40;99.90
14614;DHT22;7393;51.446;6.800;2023-02-04T10:03:41;8.50;80.00
14614;DHT22;7393;51.446;6.800;2023-02-04T10:06:13;8.50;99.90
14614;DHT22;7393;51.446;6.800;2023-02-04T10:08:41;8.50;99.90
14614;DHT22;7393;51.446;6.800;2023-02-04T10:11:09;8.50;49.80
14614;DHT22;7393;51.446;6.800;2023-02-04T10:13:38;8.50;23.30
14614;DHT22;7393;51.446;6.800;2023-02-04T10:16:12;8.60;1.00
14614;DHT22;7393;51.446;6.800;2023-02-04T10:18:39;8.70;99.90
14614;DHT22;7393;51.446;6.800;2023-02-04T10:21:16;8.70;99.90
14614;DHT22;7393;51.446;6.800;2023-02-04T10:23:46;8.70;99.90
14614;DHT22;7393;51.446;6.800;2023-02-04T10:26:14;8.70;99.90
14614;DHT22;7393;51.446;6.800;2023-02-04T10:28:42;8.70;99.90
14614;DHT22;7393;51.446;6.800;2023-02-04T10:31:31;8.70;1.00
14614;DHT22;7393;51.446;6.800;2023-02-04T10:34:06;8.80;99.90
14614;DHT22;7393;51.446;6.800;2023-02-04T10:36:34;8.80;99.90
14614;DHT22;7393;51.446;6.800;2023-02-04T10:39:02;8.90;1.00
14614;DHT22;7393;51.446;6.800;2023-02-04T10:41:29;8.90;1.00
14614;DHT22;7393;51.446;6.800;2023-02-04T10:44:08;9.00;1.00
14614;DHT22;7393;51.446;6.800;2023-02-04T10:46:35;9.00;1.00
14614;DHT22;7393;51.446;6.800;2023-02-04T10:49:03;9.00;99.90
14614;DHT22;7393;51.446;6.800;2023-02-04T10:51:30;9.10;26.00
14614;DHT22;7393;51.446;6.800;2023-02-04T10:53:58;9.10;1.00
14614;DHT22;7393;51.446;6.800;2023-02-04T10:56:43;9.10;1.00
14614;DHT22;7393;51.446;6.800;2023-02-04T10:59:18;9.20;1.00
14614;DHT22;7393;51.446;6.800;2023-02-04T11:01:46;9.20;1.00
14614;DHT22;7393;51.446;6.800;2023-02-04T11:04:13;9.20;99.90
14614;DHT22;7393;51.446;6.800;2023-02-04T11:06:39;9.30;1.00
14614;DHT22;7393;51.446;6.800;2023-02-04T11:09:11;9.30;99.90
14614;DHT22;7393;51.446;6.800;2023-02-04T11:11:38;9.40;1.00
14614;DHT22;7393;51.446;6.800;2023-02-04T11:14:17;9.40;1.00
14614;DHT22;7393;51.446;6.800;2023-02-04T11:16:47;9.40;1.00
14614;DHT22;7393;51.446;6.800;2023-02-04T11:19:14;9.40;99.90
14614;DHT22;7393;51.446;6.800;2023-02-04T11:21:44;9.50;99.90
14614;DHT22;7393;51.446;6.800;2023-02-04T11:24:23;9.50;99.90
14614;DHT22;7393;51.446;6.800;2023-02-04T11:26:51;9.50;1.00
14614;DHT22;7393;51.446;6.800;2023-02-04T11:29:27;9.50;99.90
14614;DHT22;7393;51.446;6.800;2023-02-04T11:32:01;9.60;1.00
14614;DHT22;7393;51.446;6.800;2023-02-04T11:34:31;9.60;1.00
14614;DHT22;7393;51.446;6.800;2023-02-04T11:37:12;9.70;99.90
14614;DHT22;7393;51.446;6.800;2023-02-04T11:39:42;9.70;1.00
14614;DHT22;7393;51.446;6.800;2023-02-04T11:42:16;9.70;1.00
14614;DHT22;7393;51.446;6.800;2023-02-04T11:44:48;9.80;1.00
14614;DHT22;7393;51.446;6.800;2023-02-04T11:47:15;9.80;99.90
14614;DHT22;7393;51.446;6.800;2023-02-04T11:49:42;9.90;63.20
14614;DHT22;7393;51.446;6.800;2023-02-04T11:52:13;9.90;99.90
14614;DHT22;7393;51.446;6.800;2023-02-04T11:54:41;10.00;99.90
14614;DHT22;7393;51.446;6.800;2023-02-04T11:57:10;10.00;99.90
14614;DHT22;7393;51.446;6.800;2023-02-04T11:59:37;10.10;99.90
14614;DHT22;7393;51.446;6.800;2023-02-04T12:02:05;10.10;1.00
14614;DHT22;7393;51.446;6.800;2023-02-04T12:04:34;10.20;40.40
14614;DHT22;7393;51.446;6.800;2023-02-04T12:07:02;10.20;99.90
14614;DHT22;7393;51.446;6.800;2023-02-04T12:09:30;10.20;74.50
14614;DHT22;7393;51.446;6.800;2023-02-04T12:11:59;10.20;1.00
14614;DHT22;7393;51.446;6.800;2023-02-04T12:14:31;10.20;1.00
14614;DHT22;7393;51.446;6.800;2023-02-04T12:16:58;10.20;1.00
14614;DHT22;7393;51.446;6.800;2023-02-04T12:19:25;10.20;99.90
14614;DHT22;7393;51.446;6.800;2023-02-04T12:21:52;10.20;99.90
14614;DHT22;7393;51.446;6.800;2023-02-04T12:24:20;10.30;99.90
14614;DHT22;7393;51.446;6.800;2023-02-04T12:26:46;10.30;99.90
14614;DHT22;7393;51.446;6.800;2023-02-04T12:29:15;10.30;99.90
14614;DHT22;7393;51.446;6.800;2023-02-04T12:31:41;10.40;1.00
14614;DHT22;7393;51.446;6.800;2023-02-04T12:34:08;10.40;94.20
14614;DHT22;7393;51.446;6.800;2023-02-04T12:36:35;10.30;1.00
14614;DHT22;7393;51.446;6.800;2023-02-04T12:39:02;10.30;99.90
14614;DHT22;7393;51.446;6.800;2023-02-04T12:41:28;10.40;99.90
14614;DHT22;7393;51.446;6.800;2023-02-04T12:43:55;10.40;99.90
14614;DHT22;7393;51.446;6.800;2023-02-04T12:46:23;10.50;1.00
14614;DHT22;7393;51.446;6.800;2023-02-04T12:48:50;10.50;1.00
14614;DHT22;7393;51.446;6.800;2023-02-04T12:51:17;10.60;1.00
14614;DHT22;7393;51.446;6.800;2023-02-04T12:53:45;10.50;1.00
14614;DHT22;7393;51.446;6.800;2023-02-04T12:56:12;10.50;99.90
14614;DHT22;7393;51.446;6.800;2023-02-04T12:58:39;10.50;1.00
14614;DHT22;7393;51.446;6.800;2023-02-04T13:01:06;10.60;1.00
14614;DHT22;7393;51.446;6.800;2023-02-04T13:03:34;10.60;1.00
14614;DHT22;7393;51.446;6.800;2023-02-04T13:06:01;10.60;1.00
14614;DHT22;7393;51.446;6.800;2023-02-04T13:08:28;10.70;1.00
14614;DHT22;7393;51.446;6.800;2023-02-04T13:10:55;10.80;99.90
14614;DHT22;7393;51.446;6.800;2023-02-04T13:13:22;10.80;1.00
14614;DHT22;7393;51.446;6.800;2023-02-04T13:15:49;10.90;99.90
14614;DHT22;7393;51.446;6.800;2023-02-04T13:18:16;11.10;1.00
14614;DHT22;7393;51.446;6.800;2023-02-04T13:20:45;11.10;29.00
14614;DHT22;7393;51.446;6.800;2023-02-04T13:23:12;11.10;1.00
14614;DHT22;7393;51.446;6.800;2023-02-04T13:25:38;11.10;1.00
14614;DHT22;7393;51.446;6.800;2023-02-04T13:28:05;11.00;1.00
14614;DHT22;7393;51.446;6.800;2023-02-04T13:30:32;11.00;99.90
14614;DHT22;7393;51.446;6.800;2023-02-04T13:32:59;10.90;99.90
14614;DHT22;7393;51.446;6.800;2023-02-04T13:35:25;10.80;99.90
14614;DHT22;7393;51.446;6.800;2023-02-04T13:37:53;10.80;99.90
14614;DHT22;7393;51.446;6.800;2023-02-04T13:40:20;10.70;1.00
14614;DHT22;7393;51.446;6.800;2023-02-04T13:42:47;10.70;99.90
14614;DHT22;7393;51.446;6.800;2023-02-04T13:45:14;10.80;1.00
14614;DHT22;7393;51.446;6.800;2023-02-04T13:47:41;10.80;1.00
14614;DHT22;7393;51.446;6.800;2023-02-04T13:50:08;10.90;99.90
14614;DHT22;7393;51.446;6.800;2023-02-04T13:52:35;11.00;99.90
14614;DHT22;7393;51.446;6.800;2023-02-04T13:55:03;10.90;1.00
14614;DHT22;7393;51.446;6.800;2023-02-04T13:57:30;10.90;1.00
14614;DHT22;7393;51.446;6.800;2023-02-04T13:59:57;10.80;1.00
14614;DHT22;7393;51.446;6.800;2023-02-04T14:02:24;10.70;1.00
14614;DHT22;7393;51.446;6.800;2023-02-04T14:04:51;10.70;1.00
14614;DHT22;7393;51.446;6.800;2023-02-04T14:07:17;10.70;95.60
14614;DHT22;7393;51.446;6.800;2023-02-04T14:09:44;10.70;99.90
14614;DHT22;7393;51.446;6.800;2023-02-04T14:12:14;10.70;1.00
14614;DHT22;7393;51.446;6.800;2023-02-04T14:14:40;10.60;1.00
14614;DHT22;7393;51.446;6.800;2023-02-04T14:17:07;10.60;1.00
14614;DHT22;7393;51.446;6.800;2023-02-04T14:19:34;10.60;1.00
14614;DHT22;7393;51.446;6.800;2023-02-04T14:22:01;10.60;1.00
14614;DHT22;7393;51.446;6.800;2023-02-04T14:24:28;10.60;1.00
14614;DHT22;7393;51.446;6.800;2023-02-04T14:26:55;10.60;19.60
14614;DHT22;7393;51.446;6.800;2023-02-04T14:29:23;10.60;1.00
14614;DHT22;7393;51.446;6.800;2023-02-04T14:31:50;10.50;1.00
14614;DHT22;7393;51.446;6.800;2023-02-04T14:34:16;10.50;1.00
14614;DHT22;7393;51.446;6.800;2023-02-04T14:36:43;10.50;39.90
14614;DHT22;7393;51.446;6.800;2023-02-04T14:39:18;10.40;1.60
14614;DHT22;7393;51.446;6.800;2023-02-04T14:41:45;10.40;27.80
14614;DHT22;7393;51.446;6.800;2023-02-04T14:44:12;10.40;91.90
14614;DHT22;7393;51.446;6.800;2023-02-04T14:46:43;10.40;49.80
14614;DHT22;7393;51.446;6.800;2023-02-04T14:49:12;10.30;1.00
14614;DHT22;7393;51.446;6.800;2023-02-04T14:51:39;10.40;1.00
14614;DHT22;7393;51.446;6.800;2023-02-04T14:54:06;10.30;1.00
14614;DHT22;7393;51.446;6.800;2023-02-04T14:56:34;10.30;1.00
14614;DHT22;7393;51.446;6.800;2023-02-04T14:59:00;10.30;1.00
14614;DHT22;7393;51.446;6.800;2023-02-04T15:01:27;10.30;1.00
14614;DHT22;7393;51.446;6.800;2023-02-04T15:03:55;10.20;1.00
14614;DHT22;7393;51.446;6.800;2023-02-04T15:06:22;10.20;1.00
14614;DHT22;7393;51.446;6.800;2023-02-04T15:08:49;10.20;1.00
14614;DHT22;7393;51.446;6.800;2023-02-04T15:11:16;10.20;1.00
14614;DHT22;7393;51.446;6.800;2023-02-04T15:13:45;10.20;1.00
14614;DHT22;7393;51.446;6.800;2023-02-04T15:16:11;10.20;1.00
14614;DHT22;7393;51.446;6.800;2023-02-04T15:18:39;10.20;1.00
14614;DHT22;7393;51.446;6.800;2023-02-04T15:21:06;10.20;1.00
14614;DHT22;7393;51.446;6.800;2023-02-04T15:23:32;10.10;1.00
14614;DHT22;7393;51.446;6.800;2023-02-04T15:25:59;10.20;1.00
14614;DHT22;7393;51.446;6.800;2023-02-04T15:28:26;10.10;27.30
14614;DHT22;7393;51.446;6.800;2023-02-04T15:30:55;10.10;99.90
14614;DHT22;7393;51.446;6.800;2023-02-04T15:33:22;10.00;99.90
14614;DHT22;7393;51.446;6.800;2023-02-04T15:35:49;10.00;99.90
14614;DHT22;7393;51.446;6.800;2023-02-04T15:38:15;10.00;99.90
14614;DHT22;7393;51.446;6.800;2023-02-04T15:40:42;10.00;99.90
14614;DHT22;7393;51.446;6.800;2023-02-04T15:43:09;9.90;99.90
14614;DHT22;7393;51.446;6.800;2023-02-04T15:45:36;9.90;99.90
14614;DHT22;7393;51.446;6.800;2023-02-04T15:48:07;9.80;1.00
14614;DHT22;7393;51.446;6.800;2023-02-04T15:50:34;9.80;1.00
14614;DHT22;7393;51.446;6.800;2023-02-04T15:53:01;9.80;1.00
14614;DHT22;7393;51.446;6.800;2023-02-04T15:55:28;9.80;1.00
14614;DHT22;7393;51.446;6.800;2023-02-04T15:57:55;9.80;1.00
14614;DHT22;7393;51.446;6.800;2023-02-04T16:00:22;9.70;1.00
14614;DHT22;7393;51.446;6.800;2023-02-04T16:02:49;9.70;1.00
14614;DHT22;7393;51.446;6.800;2023-02-04T16:05:18;9.70;29.30
14614;DHT22;7393;51.446;6.800;2023-02-04T16:07:44;9.60;99.90
14614;DHT22;7393;51.446;6.800;2023-02-04T16:10:11;9.60;99.90